Charlottesville, VA (22901)

2:29 PM EST on February 14, 2016 (GMT -0500)
Hydraulic Wash Laundromat | | Change Station
CLOSE
Current Station
Personal Weather Station
Location: Charlottesville, VA
Elevation: 548 ft
Nearby Weather Stations
Active Advisory: Winter Storm Warning

Elev 548 ft 38.07 °N, 78.50 °W | Updated 4 minutes ago

Clear
Clear
24.9 °F
Feels Like 25 °F
N
2.0
Wind Variable Wind from South
Gusts 5.0 mph

Today
High -- | Low -- °F
--% Chance of Precip.
Yesterday
High -- | Low -- °F
Precip. -- in
Pressure 30.46 in
Visibility 10.0 miles
Clouds Clear
Windchill 25 °F
Dew Point -0 °F
Humidity 33%
Rainfall 0.00 in
Snow Depth Not available.
7:05 AM 5:51 PM
Waxing Crescent, 44% visible
METAR KCHO 141853Z VRB03KT 10SM CLR M04/M19 A3043 RMK AO2 SLP314 T10441194
Pressure 30.46 in
Visibility 10.0 miles
Clouds Clear
Windchill 25 °F
Dew Point -0 °F
Humidity 33%
Rainfall 0.00 in
Snow Depth Not available.
7:05 AM 5:51 PM
Waxing Crescent, 44% visible
METAR KCHO 141853Z VRB03KT 10SM CLR M04/M19 A3043 RMK AO2 SLP314 T10441194

10-Day Weather Forecast

Almanac

Astronomy

Feb. 14, 2016 Rise Set
Actual Time
Civil Twilight
Nautical Twilight
Astronomical Twilight
Moon
Length of Visible Light
Length of Day
Tomorrow will be .
, % of the Moon is Illuminated

Today's Extremes

State Highs State Lows

Community

WunderPhotos

Upload Photos

1,892,875 photos uploaded!

WunderBlog® & News

Nearby

Air Quality

  Air Quality AQ Index Pollutant
Not available.

Snow Depth

Station Depth Elevation

Earthquake Activity

City Distance Mag. Time & Date
Minimum magnitude displayed is 2.5.

Coastal Water Temperatures

Place Temperature

Stations

Nearby Weather Stations

Station Location Temp. Windchill Dew Point Humidity Wind Precip. Elev Updated Type
                   

Watches & Warnings

Winter Storm Warning
Issued: 2:13 PM EST Feb. 14, 2016 – National Weather Service

... Winter Storm Warning remains in effect from 9 PM this evening
to 10 am EST Tuesday...

* precipitation type... snow... sleet and freezing rain.

* Accumulation... 4 to 6 inches of snow and sleet. Around a quarter
inch of ice from freezing rain.

* Timing... snow will begin by midnight. Snow will continue through
Monday before changing to sleet and freezing rain Monday night.
Precipitation will change to rain Tuesday morning.

* Winds... southeast around 5 to 10 mph.

* Temperatures..in the teens tonight... rising into the upper 20s
and lower 30s Monday into Monday night. Temperatures will rise
into the upper 30s and lower 40s Tuesday.

* Impacts... snow and ice will cause slippery roads and travel
will be difficult.

Precautionary/preparedness actions...

A Winter Storm Warning means significant amounts of snow...
sleet... and ice are expected or occurring. Strong winds are also
possible. This will make travel very hazardous or impossible.